< < Back
Terminal Aerodrome Forecast


Current Version              Previous Versions:   1  2  3  4  5  6  7  8  9  

Terminal Aerodrome Forecast

135
FTUS42 KFFC 310532
TAFAHN
TAF
KAHN 310532Z 3106/0106 04003KT P6SM SCT120
     FM311400 05007KT P6SM SCT035 SCT120
     FM311600 06008KT P6SM SCT050
     FM010000 08004KT P6SM SCT120 SCT250=

Latest METAR

015
SAUS70 KWBC 311354
MTRAHN
METAR KAHN 311351Z 00000KT 10SM CLR 27/22 A3002 RMK AO2 SLP156
T02720222


USA.gov is the U.S. government's official web portal to all federal, state and local government web resources and services.